Time;durP1;ratioP1;P1;durP2;ratioP2;P2;SDS_P1;SDS_P2;PMS_P1;PMS_P2;Temp;Humidity;BMP_temperature;BMP_pressure;BME280_temperature;BME280_humidity;BME280_pressure;Samples;Min_cycle;Max_cycle;Signal;HPM_P1;HPM_P2
2023/05/09 00:00:05;;;;;;;2.70;2.50;;;;;;;13.77;100.00;64404.50;5031526;28;20190;-59
2023/05/09 00:02:33;;;;;;;2.30;2.10;;;;;;;13.68;100.00;64389.00;5031711;28;20194;-60
2023/05/09 00:04:59;;;;;;;2.72;2.53;;;;;;;13.67;100.00;64393.53;5031761;28;20214;-60
2023/05/09 00:07:25;;;;;;;3.03;2.78;;;;;;;13.77;100.00;64401.97;5013746;28;20186;-59
2023/05/09 00:09:50;;;;;;;2.47;2.28;;;;;;;13.88;100.00;64416.03;5031449;28;20225;-60
2023/05/09 00:12:16;;;;;;;3.78;2.67;;;;;;;13.89;100.00;64412.06;5031395;28;20320;-59
2023/05/09 00:14:44;;;;;;;3.47;2.80;;;;;;;13.66;100.00;64392.44;5031273;28;20594;-59
2023/05/09 00:17:14;;;;;;;3.40;2.75;;;;;;;13.65;100.00;64388.25;5031370;28;20190;-58
2023/05/09 00:19:40;;;;;;;3.28;2.95;;;;;;;13.62;100.00;64384.94;5031178;28;20246;-58
2023/05/09 00:22:07;;;;;;;2.80;2.60;;;;;;;13.76;100.00;64402.84;5031241;28;20181;-58
2023/05/09 00:24:33;;;;;;;3.92;3.03;;;;;;;13.72;100.00;64395.94;5030902;28;20699;-58
2023/05/09 00:26:58;;;;;;;2.50;2.30;;;;;;;13.57;100.00;64382.56;5031103;28;20191;-59
2023/05/09 00:29:24;;;;;;;5.43;2.75;;;;;;;13.48;100.00;64368.16;5030796;28;20718;-60
2023/05/09 00:31:49;;;;;;;3.30;3.00;;;;;;;13.48;100.00;64370.13;5030976;28;20241;-60
2023/05/09 00:34:14;;;;;;;2.95;2.53;;;;;;;13.40;100.00;64361.34;5030912;28;20297;-58
2023/05/09 00:36:40;;;;;;;6.20;2.80;;;;;;;13.43;100.00;64365.19;5030120;28;20188;-59
2023/05/09 00:39:07;;;;;;;4.28;2.97;;;;;;;13.33;100.00;64354.22;5029523;28;20360;-59
2023/05/09 00:41:32;;;;;;;3.30;2.85;;;;;;;13.29;100.00;64347.28;5030773;28;20194;-61
2023/05/09 00:43:57;;;;;;;3.35;3.05;;;;;;;13.36;100.00;64356.97;5031058;28;20217;-58
2023/05/09 00:46:23;;;;;;;4.47;3.22;;;;;;;13.48;100.00;64375.75;4996891;28;20572;-60
2023/05/09 00:48:49;;;;;;;3.17;2.85;;;;;;;13.63;100.00;64388.59;5013190;28;20303;-58
2023/05/09 00:51:15;;;;;;;3.28;2.97;;;;;;;13.58;100.00;64380.56;5030682;28;20238;-58
2023/05/09 00:53:41;;;;;;;4.63;3.22;;;;;;;13.62;100.00;64385.50;5012889;28;20206;-59
2023/05/09 00:56:08;;;;;;;3.45;2.95;;;;;;;13.67;100.00;64393.53;5030874;28;20190;-61
2023/05/09 00:58:33;;;;;;;4.07;2.70;;;;;;;13.97;100.00;64426.47;5030589;28;20213;-61
2023/05/09 01:01:01;;;;;;;2.97;2.78;;;;;;;13.97;100.00;64423.38;5030622;28;20192;-58
2023/05/09 01:03:26;;;;;;;3.60;2.80;;;;;;;13.99;100.00;64423.59;5030467;28;20271;-59
2023/05/09 01:05:57;;;;;;;3.40;3.08;;;;;;;14.04;100.00;64431.06;5030507;28;20174;-59
2023/05/09 01:09:17;;;;;;;3.53;3.15;;;;;;;13.98;100.00;64427.00;5030511;28;20214;-59
2023/05/09 01:12:11;;;;;;;5.25;3.70;;;;;;;13.92;100.00;64420.41;4969571;28;20200;-58
2023/05/09 01:15:00;;;;;;;4.50;3.10;;;;;;;14.00;100.00;64427.22;4989181;28;20232;-58
2023/05/09 01:17:35;;;;;;;3.47;3.17;;;;;;;14.04;100.00;64433.59;5030349;28;20202;-58
2023/05/09 01:20:11;;;;;;;3.80;3.10;;;;;;;13.94;100.00;64423.16;5030120;28;20593;-58
2023/05/09 01:22:42;;;;;;;3.60;3.30;;;;;;;13.96;100.00;64422.84;5030261;28;20190;-58
2023/05/09 01:25:43;;;;;;;4.55;3.70;;;;;;;13.92;100.00;64418.44;5030406;28;20703;-59
2023/05/09 01:28:31;;;;;;;3.33;3.03;;;;;;;13.78;100.00;64403.06;5030382;28;20214;-58
2023/05/09 01:30:57;;;;;;;4.13;3.03;;;;;;;13.95;100.00;64418.66;5001821;28;20217;-59
2023/05/09 01:33:25;;;;;;;3.17;2.88;;;;;;;13.87;100.00;64412.97;5012306;28;20225;-58
2023/05/09 01:36:03;;;;;;;3.30;3.00;;;;;;;13.91;100.00;64419.34;5030054;28;20186;-57
2023/05/09 01:38:31;;;;;;;5.03;3.33;;;;;;;14.06;100.00;64433.81;5030068;28;20213;-58
2023/05/09 01:40:58;;;;;;;4.25;3.17;;;;;;;14.03;100.00;64429.97;5030315;28;20186;-61
2023/05/09 01:43:28;;;;;;;4.43;2.97;;;;;;;13.92;100.00;64418.44;5029975;28;20220;-62
2023/05/09 01:45:54;;;;;;;4.40;3.15;;;;;;;13.91;100.00;64416.81;5029985;28;20186;-59
2023/05/09 01:48:25;;;;;;;4.67;3.13;;;;;;;13.80;100.00;64404.72;5031246;28;20210;-58
2023/05/09 01:50:52;;;;;;;4.32;3.42;;;;;;;13.28;100.00;64350.72;5033261;28;20232;-60
2023/05/09 01:53:20;;;;;;;3.97;3.20;;;;;;;13.59;100.00;64384.75;5015603;28;20573;-58
2023/05/09 01:55:47;;;;;;;3.95;3.47;;;;;;;13.55;100.00;64377.81;5033333;28;20205;-61
2023/05/09 01:58:15;;;;;;;4.17;3.20;;;;;;;13.70;100.00;64393.72;5033202;28;20222;-59
2023/05/09 02:00:41;;;;;;;5.32;3.58;;;;;;;13.73;100.00;64397.03;5033321;28;20609;-58
2023/05/09 02:03:08;;;;;;;6.80;3.30;;;;;;;13.84;100.00;64411.63;5033096;28;20225;-59
2023/05/09 02:05:35;;;;;;;3.10;2.90;;;;;;;13.96;100.00;64422.28;5033034;28;20193;-62
2023/05/09 02:08:00;;;;;;;3.13;2.83;;;;;;;13.91;100.00;64416.81;5033023;28;20258;-62
2023/05/09 02:10:27;;;;;;;3.95;3.45;;;;;;;13.85;100.00;64410.22;5033306;28;20178;-63
2023/05/09 02:12:53;;;;;;;7.07;3.27;;;;;;;13.98;100.00;64427.00;5033097;28;20421;-61
2023/05/09 02:15:20;;;;;;;7.32;3.38;;;;;;;14.02;100.00;64429.44;5033037;28;20186;-61
2023/05/09 02:17:45;;;;;;;4.65;3.25;;;;;;;13.97;100.00;64423.38;5033069;28;20648;-60
2023/05/09 02:20:12;;;;;;;4.43;3.20;;;;;;;14.00;100.00;64429.22;5033021;28;20236;-60
2023/05/09 02:22:39;;;;;;;3.20;2.90;;;;;;;14.01;100.00;64425.25;5014948;28;20574;-59
2023/05/09 02:25:06;;;;;;;4.82;3.58;;;;;;;14.06;100.00;64436.34;5032816;28;20217;-60
2023/05/09 02:27:33;;;;;;;3.65;3.30;;;;;;;14.06;100.00;64433.25;5014924;28;20262;-59
2023/05/09 02:30:03;;;;;;;4.00;3.15;;;;;;;13.99;100.00;64428.69;5032570;28;20224;-58
2023/05/09 02:32:30;;;;;;;5.28;3.72;;;;;;;13.91;100.00;64416.81;5032761;28;20213;-62
2023/05/09 02:34:57;;;;;;;3.20;2.95;;;;;;;13.91;100.00;64417.34;5032986;28;20261;-62
2023/05/09 02:37:24;;;;;;;5.28;3.40;;;;;;;13.94;100.00;64422.63;5032615;28;20190;-61
2023/05/09 02:39:50;;;;;;;4.15;3.50;;;;;;;13.89;100.00;64415.16;5032768;28;20214;-59
2023/05/09 02:42:21;;;;;;;4.32;3.38;;;;;;;14.01;100.00;64427.78;5032537;28;20668;-58
2023/05/09 02:44:46;;;;;;;4.18;3.30;;;;;;;13.99;100.00;64426.13;5032367;28;20218;-59
2023/05/09 02:47:12;;;;;;;3.25;2.95;;;;;;;14.12;100.00;64442.38;5032711;28;20319;-58
2023/05/09 02:49:37;;;;;;;4.32;3.00;;;;;;;14.06;100.00;64433.25;5032563;28;20214;-63
2023/05/09 02:52:03;;;;;;;3.35;3.05;;;;;;;14.13;100.00;64440.97;5032414;28;20664;-61
2023/05/09 02:54:28;;;;;;;4.80;3.35;;;;;;;14.03;100.00;64427.44;5032342;28;20381;-61
2023/05/09 02:56:54;;;;;;;4.00;3.60;;;;;;;14.00;100.00;64426.69;5032446;28;20198;-58
2023/05/09 02:59:20;;;;;;;4.13;3.42;;;;;;;14.04;100.00;64431.06;5032447;28;20300;-58
2023/05/09 03:01:45;;;;;;;3.42;2.95;;;;;;;14.09;100.00;64439.09;5032412;28;20208;-59
2023/05/09 03:04:11;;;;;;;4.85;3.47;;;;;;;14.07;100.00;64437.47;5032564;28;20224;-62
2023/05/09 03:06:37;;;;;;;6.35;3.53;;;;;;;14.02;100.00;64431.41;5032101;28;20236;-62
2023/05/09 03:09:03;;;;;;;4.82;3.90;;;;;;;13.85;100.00;64410.75;5032387;28;20218;-61
2023/05/09 03:11:29;;;;;;;6.10;3.28;;;;;;;13.73;100.00;64397.59;5032278;28;20289;-59
2023/05/09 03:13:55;;;;;;;5.65;3.67;;;;;;;13.94;100.00;64420.63;5031996;28;20210;-57
2023/05/09 03:16:20;;;;;;;4.65;3.67;;;;;;;14.01;100.00;64425.25;5032265;28;20196;-59
2023/05/09 03:18:46;;;;;;;5.22;3.38;;;;;;;13.78;100.00;64405.03;5032347;28;20226;-58
2023/05/09 03:21:11;;;;;;;5.20;3.77;;;;;;;13.70;100.00;64396.25;5032076;28;20186;-57
2023/05/09 03:23:37;;;;;;;4.88;4.18;;;;;;;13.67;100.00;64390.44;5032134;28;20298;-59
2023/05/09 03:26:03;;;;;;;5.07;4.25;;;;;;;13.59;100.00;64381.66;5032065;28;20194;-61
2023/05/09 03:28:28;;;;;;;5.80;4.18;;;;;;;13.43;100.00;64367.19;5031730;28;20328;-62
2023/05/09 03:30:54;;;;;;;4.65;3.72;;;;;;;13.67;100.00;64390.44;5031950;28;20204;-61
2023/05/09 03:33:19;;;;;;;7.88;4.03;;;;;;;13.71;100.00;64397.94;5031846;28;20217;-58
2023/05/09 03:35:45;;;;;;;6.18;3.97;;;;;;;13.71;100.00;64394.84;5031916;28;20201;-59
2023/05/09 03:38:10;;;;;;;4.22;3.80;;;;;;;13.62;100.00;64388.03;5031744;28;20209;-57
2023/05/09 03:40:36;;;;;;;4.90;3.92;;;;;;;13.46;100.00;64367.94;5031908;28;20265;-58
2023/05/09 03:43:01;;;;;;;4.53;3.80;;;;;;;13.46;100.00;64368.50;5032062;28;20214;-57
2023/05/09 03:45:27;;;;;;;6.70;4.55;;;;;;;13.71;100.00;64397.38;5013965;28;20182;-58
2023/05/09 03:47:52;;;;;;;5.03;3.97;;;;;;;13.46;100.00;64367.94;5013830;28;20336;-57
2023/05/09 03:50:17;;;;;;;7.00;4.40;;;;;;;13.51;100.00;64375.41;5031803;28;20492;-57
2023/05/09 03:52:43;;;;;;;5.15;4.35;;;;;;;13.39;100.00;64357.72;5031506;28;20234;-58
2023/05/09 03:55:09;;;;;;;7.40;5.25;;;;;;;13.60;100.00;64382.75;5031669;28;20566;-56
2023/05/09 03:57:34;;;;;;;5.38;4.47;;;;;;;13.51;100.00;64372.88;5031596;28;20194;-58
2023/05/09 04:00:00;;;;;;;7.53;4.83;;;;;;;13.56;100.00;64378.91;5031427;28;20751;-58
2023/05/09 04:02:26;;;;;;;7.00;4.73;;;;;;;13.47;100.00;64372.13;5031177;28;20620;-58
2023/05/09 04:04:51;;;;;;;6.43;4.53;;;;;;;13.49;100.00;64371.25;5030396;28;20217;-59
2023/05/09 04:07:18;;;;;;;6.88;5.18;;;;;;;13.51;100.00;64372.88;5030952;28;20214;-58
2023/05/09 04:09:43;;;;;;;6.47;4.43;;;;;;;13.46;100.00;64370.47;5031190;28;20222;-58
2023/05/09 04:12:09;;;;;;;7.25;4.65;;;;;;;13.51;100.00;64372.88;5030273;28;20615;-58
2023/05/09 04:14:35;;;;;;;5.83;4.13;;;;;;;13.49;100.00;64374.31;5031404;28;20283;-60
2023/05/09 04:17:00;;;;;;;5.43;4.30;;;;;;;13.41;100.00;64363.00;5031335;28;20201;-59
2023/05/09 04:19:25;;;;;;;4.97;4.20;;;;;;;13.34;100.00;64357.84;5031346;28;20296;-59
2023/05/09 04:21:51;;;;;;;8.57;4.70;;;;;;;13.36;100.00;64356.97;5031292;28;20202;-60
2023/05/09 04:24:16;;;;;;;6.97;4.40;;;;;;;13.39;100.00;64358.28;5043503;23;20227;-62
2023/05/09 04:26:42;;;;;;;9.82;5.30;;;;;;;13.48;100.00;64368.16;5071320;28;20200;-61
2023/05/09 04:29:08;;;;;;;7.88;4.55;;;;;;;13.68;100.00;64392.09;5057986;28;20591;-61
2023/05/09 04:31:33;;;;;;;8.63;4.70;;;;;;;13.65;100.00;64388.25;5050884;28;20702;-61
2023/05/09 04:33:58;;;;;;;6.72;4.20;;;;;;;13.69;100.00;64392.66;5051257;28;20213;-61
2023/05/09 04:36:24;;;;;;;6.97;4.45;;;;;;;14.44;100.00;64475.06;5051044;28;20189;-62
2023/05/09 04:38:49;;;;;;;5.28;3.40;;;;;;;15.18;100.00;64558.38;5051129;28;20587;-58
2023/05/09 04:41:15;;;;;;;6.40;3.75;;;;;;;15.46;100.00;64589.19;5033167;28;20575;-61
2023/05/09 04:43:41;;;;;;;8.93;6.57;;;;;;;14.82;100.00;64516.81;5051027;28;20217;-58
2023/05/09 04:46:07;;;;;;;4.25;3.55;;;;;;;14.69;100.00;64504.50;5051005;28;20630;-59
2023/05/09 04:48:36;;;;;;;5.20;4.03;;;;;;;14.92;100.00;64525.25;5050516;28;20598;-59
2023/05/09 04:51:02;;;;;;;6.30;4.00;;;;;;;14.80;100.00;64514.63;5050604;28;20194;-59
2023/05/09 04:53:27;;;;;;;5.05;3.53;;;;;;;14.74;100.00;64508.03;5050139;28;20321;-59
2023/05/09 04:55:53;;;;;;;4.22;3.83;;;;;;;14.63;100.00;64495.38;5050490;28;20199;-58
2023/05/09 04:58:19;;;;;;;4.03;3.28;;;;;;;14.65;100.00;64500.09;5050402;28;20588;-58
2023/05/09 05:00:45;;;;;;;9.25;3.63;;;;;;;14.77;100.00;64513.84;5050509;28;20188;-58
2023/05/09 05:03:11;;;;;;;5.47;3.55;;;;;;;14.80;100.00;64511.53;5050318;28;20221;-58
2023/05/09 05:05:36;;;;;;;3.92;3.60;;;;;;;14.69;100.00;64501.97;5050316;28;20207;-58
2023/05/09 05:08:01;;;;;;;4.07;3.00;;;;;;;14.61;100.00;64493.72;5050306;28;20205;-60
2023/05/09 05:10:27;;;;;;;6.90;3.40;;;;;;;14.75;100.00;64509.09;5050054;28;20239;-59
2023/05/09 05:12:52;;;;;;;3.72;2.80;;;;;;;14.60;100.00;64492.63;5050079;28;20219;-58
2023/05/09 05:15:18;;;;;;;6.13;3.17;;;;;;;14.48;100.00;64481.44;5032428;28;20663;-59
2023/05/09 05:17:44;;;;;;;2.67;2.47;;;;;;;14.25;100.00;64454.69;5050028;28;20208;-58
2023/05/09 05:20:10;;;;;;;5.90;2.90;;;;;;;14.45;100.00;64475.59;5050090;28;20182;-59
2023/05/09 05:22:35;;;;;;;4.75;2.60;;;;;;;14.50;100.00;64481.09;5049827;28;20176;-60
2023/05/09 05:25:02;;;;;;;4.72;2.30;;;;;;;14.43;100.00;64473.94;5050155;28;20701;-59
2023/05/09 05:27:28;;;;;;;3.77;2.50;;;;;;;14.27;100.00;64453.81;5050052;28;20181;-60
2023/05/09 05:29:53;;;;;;;3.85;2.05;;;;;;;14.48;100.00;64476.91;5050132;28;20706;-57
2023/05/09 05:32:18;;;;;;;2.00;1.77;;;;;;;14.48;100.00;64478.91;5050030;28;20244;-60
2023/05/09 05:34:44;;;;;;;3.70;2.10;;;;;;;14.39;100.00;64469.53;5049591;28;20293;-58
2023/05/09 05:37:10;;;;;;;2.83;1.67;;;;;;;14.34;100.00;64464.06;5049610;28;20669;-57
2023/05/09 05:39:35;;;;;;;3.50;1.80;;;;;;;14.37;100.00;64467.34;5050231;28;20248;-57
2023/05/09 05:42:00;;;;;;;2.20;1.50;;;;;;;14.28;100.00;64458.00;5049842;28;20189;-56
2023/05/09 05:44:26;;;;;;;1.27;1.15;;;;;;;14.06;100.00;64433.25;5050073;28;20213;-58
2023/05/09 05:46:51;;;;;;;1.40;1.30;;;;;;;14.17;100.00;64445.34;5049976;28;20192;-57
2023/05/09 05:49:17;;;;;;;3.35;2.00;;;;;;;14.12;100.00;64442.38;5049967;28;20233;-61
2023/05/09 05:51:42;;;;;;;4.65;1.58;;;;;;;14.06;100.00;64433.25;5049843;28;20209;-61
2023/05/09 05:54:07;;;;;;;1.97;1.30;;;;;;;14.05;100.00;64432.19;5031779;28;20210;-61
2023/05/09 05:56:33;;;;;;;3.20;1.40;;;;;;;14.14;100.00;64442.59;5049641;28;20193;-61
2023/05/09 05:58:59;;;;;;;6.25;1.45;;;;;;;13.98;100.00;64425.03;5049509;28;20279;-60
2023/05/09 06:01:25;;;;;;;4.60;1.60;;;;;;;13.99;100.00;64426.13;5049607;28;20415;-58
2023/05/09 06:03:53;;;;;;;1.52;1.42;;;;;;;14.08;100.00;64435.47;5049791;28;20212;-58
2023/05/09 06:06:20;;;;;;;1.23;1.13;;;;;;;14.03;100.00;64424.91;5049780;28;20217;-57
2023/05/09 06:08:48;;;;;;;1.65;1.10;;;;;;;14.03;100.00;64427.44;5049425;28;20221;-57
2023/05/09 06:11:15;;;;;;;1.10;1.00;;;;;;;14.13;100.00;64443.50;5031502;28;20240;-58
2023/05/09 06:13:41;;;;;;;1.40;1.30;;;;;;;14.23;100.00;64454.47;5049563;28;20671;-57
2023/05/09 06:16:07;;;;;;;3.17;0.88;;;;;;;14.47;100.00;64478.34;5049600;28;20193;-58
2023/05/09 06:18:34;;;;;;;3.05;0.95;;;;;;;14.61;98.36;64493.72;5031468;28;20217;-57
2023/05/09 06:21:00;;;;;;;0.87;0.70;;;;;;;14.57;98.63;64486.22;5049689;28;20185;-60
2023/05/09 06:23:25;;;;;;;1.50;0.73;;;;;;;14.43;99.96;64473.38;5049639;28;20280;-58
2023/05/09 06:25:50;;;;;;;1.38;1.13;;;;;;;14.51;100.00;64484.72;5049471;28;20239;-57
2023/05/09 06:28:16;;;;;;;0.77;0.77;;;;;;;14.39;99.95;64466.47;5049090;28;20322;-57
2023/05/09 06:30:41;;;;;;;0.75;0.75;;;;;;;14.41;99.01;64471.75;5049358;28;20196;-56
2023/05/09 06:33:07;;;;;;;1.38;0.80;;;;;;;14.52;100.00;64486.38;5049290;28;20221;-57
2023/05/09 06:35:32;;;;;;;1.23;0.80;;;;;;;14.51;100.00;64485.28;5051992;28;20192;-57
2023/05/09 06:37:58;;;;;;;4.28;1.50;;;;;;;14.84;100.00;64521.53;5052618;28;20208;-57
2023/05/09 06:40:24;;;;;;;3.97;0.98;;;;;;;14.91;95.97;64526.69;5052545;28;20717;-57
2023/05/09 06:42:49;;;;;;;2.60;0.90;;;;;;;14.87;95.13;64524.28;5052507;28;20288;-57
2023/05/09 06:45:15;;;;;;;3.00;0.90;;;;;;;14.82;94.26;64516.81;5052927;28;20209;-57
2023/05/09 06:47:40;;;;;;;3.95;0.95;;;;;;;14.73;92.28;64506.34;5052454;28;20562;-58
2023/05/09 06:50:06;;;;;;;0.77;0.77;;;;;;;14.64;97.11;64499.56;5052808;28;20192;-58
2023/05/09 06:52:32;;;;;;;3.05;1.13;;;;;;;14.77;95.48;64511.31;5052472;28;20303;-57
2023/05/09 06:54:57;;;;;;;1.02;0.90;;;;;;;14.78;93.85;64514.94;5052593;28;20245;-60
2023/05/09 06:57:22;;;;;;;1.10;1.00;;;;;;;14.86;95.82;64518.66;5052492;28;20200;-60
2023/05/09 06:59:48;;;;;;;2.78;1.30;;;;;;;15.13;95.63;64548.34;5052522;28;20225;-58
2023/05/09 07:02:13;;;;;;;4.18;1.27;;;;;;;14.91;94.18;64524.16;5052472;28;20196;-59
2023/05/09 07:04:39;;;;;;;0.93;0.70;;;;;;;15.01;92.08;64535.16;5052646;28;20288;-57
2023/05/09 07:07:04;;;;;;;1.85;1.50;;;;;;;14.96;91.89;64532.19;5052409;28;20197;-57
2023/05/09 07:09:30;;;;;;;1.75;1.42;;;;;;;14.91;91.83;64524.16;5052676;28;20595;-56
2023/05/09 07:11:55;;;;;;;3.40;1.10;;;;;;;14.84;91.35;64519.00;5052239;28;20240;-57
2023/05/09 07:14:21;;;;;;;2.47;1.30;;;;;;;14.94;91.53;64527.47;5052552;28;20215;-59
2023/05/09 07:16:46;;;;;;;1.70;1.02;;;;;;;15.00;90.70;64534.06;5052287;28;20191;-57
2023/05/09 07:19:11;;;;;;;3.10;1.25;;;;;;;14.95;90.67;64530.53;5070539;22;20224;-57
2023/05/09 07:21:37;;;;;;;3.45;1.40;;;;;;;15.11;89.98;64548.69;5072027;28;20708;-57
2023/05/09 07:24:08;;;;;;;2.25;1.67;;;;;;;15.03;89.59;64537.34;5060722;23;20224;-57
2023/05/09 07:26:35;;;;;;;4.72;1.85;;;;;;;14.89;87.77;64524.50;5072152;28;20193;-57
2023/05/09 07:29:00;;;;;;;2.42;1.73;;;;;;;15.09;91.66;64545.94;5061119;28;20304;-57
2023/05/09 07:31:26;;;;;;;1.77;1.23;;;;;;;15.02;88.22;64541.34;5051871;28;20296;-57
2023/05/09 07:33:51;;;;;;;1.80;1.10;;;;;;;15.15;88.92;64553.06;5052027;28;20210;-57
2023/05/09 07:36:16;;;;;;;1.98;1.13;;;;;;;14.89;91.75;64521.97;5051849;28;20185;-57
2023/05/09 07:38:42;;;;;;;1.45;1.30;;;;;;;14.93;88.44;64528.88;5051870;28;20281;-58
2023/05/09 07:41:08;;;;;;;0.93;0.75;;;;;;;15.14;84.78;64552.00;5051956;28;20697;-58
2023/05/09 07:43:33;;;;;;;0.95;0.80;;;;;;;15.11;85.43;64548.69;5051991;28;20236;-57
2023/05/09 07:45:59;;;;;;;2.60;1.63;;;;;;;15.15;86.50;64553.06;5050688;28;20193;-56
2023/05/09 07:48:25;;;;;;;2.92;0.80;;;;;;;15.02;87.99;64538.25;5051684;28;20213;-60
2023/05/09 07:50:50;;;;;;;1.20;1.08;;;;;;;15.07;89.18;64546.25;5051468;28;20192;-60
2023/05/09 07:53:16;;;;;;;2.40;0.85;;;;;;;14.92;90.78;64527.81;5051586;28;20649;-57
2023/05/09 07:55:43;;;;;;;3.42;1.45;;;;;;;14.87;92.10;64522.28;5051420;28;20186;-58
2023/05/09 07:58:09;;;;;;;2.13;1.45;;;;;;;15.07;91.90;64546.81;5051511;28;20225;-59
2023/05/09 08:00:34;;;;;;;1.67;1.42;;;;;;;15.20;92.21;64554.94;5033691;28;20189;-59
2023/05/09 08:03:00;;;;;;;2.85;1.30;;;;;;;15.30;88.70;64569.03;5051552;28;20683;-58
2023/05/09 08:05:25;;;;;;;2.17;1.25;;;;;;;15.29;87.99;64564.84;5051805;28;20600;-58
2023/05/09 08:07:51;;;;;;;1.05;0.95;;;;;;;15.23;87.45;64560.78;5051328;28;20243;-57
2023/05/09 08:10:16;;;;;;;1.77;1.25;;;;;;;15.19;88.28;64556.38;5051323;28;20177;-58
2023/05/09 08:12:42;;;;;;;2.05;1.35;;;;;;;15.26;87.65;64564.63;5050957;28;20683;-57
2023/05/09 08:15:07;;;;;;;2.17;1.40;;;;;;;15.37;85.47;64573.66;5051189;28;20178;-59
2023/05/09 08:17:33;;;;;;;6.68;3.35;;;;;;;15.38;87.22;64577.81;5051299;28;20652;-59
2023/05/09 08:19:58;;;;;;;2.30;1.75;;;;;;;15.49;86.97;64589.41;5051270;28;20213;-61
2023/05/09 08:22:24;;;;;;;1.73;1.45;;;;;;;15.58;84.66;64599.84;5051040;28;20567;-61
2023/05/09 08:24:49;;;;;;;1.67;1.35;;;;;;;15.67;86.39;64606.66;5050975;28;20334;-60
2023/05/09 08:27:15;;;;;;;1.50;1.40;;;;;;;15.83;85.60;64624.25;5033081;28;20193;-61
2023/05/09 08:29:41;;;;;;;6.15;3.00;;;;;;;16.07;87.18;64650.66;5050814;28;20218;-59
2023/05/09 08:32:08;;;;;;;1.85;1.40;;;;;;;16.37;83.69;64683.69;5050863;28;20214;-59
2023/05/09 08:34:34;;;;;;;1.52;1.30;;;;;;;16.70;82.41;64720.03;5050800;28;20695;-61
2023/05/09 08:37:03;;;;;;;4.03;2.00;;;;;;;16.73;81.57;64725.34;5050815;28;20197;-57
2023/05/09 08:39:29;;;;;;;1.40;1.30;;;;;;;16.69;80.35;64720.94;5051223;28;20248;-57
2023/05/09 08:41:58;;;;;;;1.75;1.40;;;;;;;16.56;79.69;64707.16;5050620;28;20197;-58
2023/05/09 08:44:24;;;;;;;2.70;1.52;;;;;;;16.59;80.69;64707.94;5051042;28;20691;-57
2023/05/09 08:46:54;;;;;;;5.03;2.47;;;;;;;16.42;81.13;64691.72;5050957;28;20189;-58
2023/05/09 08:49:19;;;;;;;3.17;1.65;;;;;;;16.59;80.35;64707.94;5050769;28;20213;-56
2023/05/09 08:51:47;;;;;;;5.20;1.80;;;;;;;16.81;79.88;64731.06;5050494;28;20270;-59
2023/05/09 08:54:14;;;;;;;2.50;1.30;;;;;;;16.63;79.96;64714.88;5032623;28;20213;-58
2023/05/09 08:56:40;;;;;;;4.75;1.75;;;;;;;16.66;82.15;64715.09;5050028;28;20188;-56
2023/05/09 08:59:07;;;;;;;2.08;1.35;;;;;;;16.72;79.98;64722.22;5051071;28;20205;-57
2023/05/09 09:01:34;;;;;;;2.58;1.40;;;;;;;16.81;79.88;64731.06;5050644;28;20192;-58
2023/05/09 09:04:04;;;;;;;3.50;1.45;;;;;;;16.73;80.86;64728.44;5050604;28;20339;-59
2023/05/09 09:06:31;;;;;;;2.33;1.13;;;;;;;16.79;79.79;64735.03;5050400;28;20267;-59
2023/05/09 09:08:57;;;;;;;1.45;1.35;;;;;;;16.70;78.47;64720.03;5050485;28;20657;-58
2023/05/09 09:11:23;;;;;;;2.70;1.13;;;;;;;16.46;78.44;64695.59;5050239;28;20262;-58
2023/05/09 09:13:51;;;;;;;0.88;0.85;;;;;;;16.25;79.58;64669.91;5050257;28;20210;-57
2023/05/09 09:16:21;;;;;;;2.53;1.25;;;;;;;16.07;82.02;64650.66;5050338;28;20186;-60
2023/05/09 09:18:50;;;;;;;0.90;0.90;;;;;;;16.03;82.51;64646.25;5049978;28;20718;-58
2023/05/09 09:21:18;;;;;;;1.27;1.17;;;;;;;15.78;84.37;64621.28;5049956;28;20189;-57
2023/05/09 09:23:46;;;;;;;1.50;1.10;;;;;;;15.50;84.62;64587.94;5050133;28;20220;-55
2023/05/09 09:26:12;;;;;;;1.38;1.00;;;;;;;15.31;86.49;64569.59;5050038;28;20185;-56
2023/05/09 09:28:38;;;;;;;3.85;1.25;;;;;;;15.14;87.11;64548.91;5049957;28;20874;-56
2023/05/09 09:31:27;;;;;;;1.30;1.20;;;;;;;15.05;88.23;64539.53;5049873;28;20708;-56
2023/05/09 09:34:00;;;;;;;1.38;1.15;;;;;;;15.00;87.43;64534.06;5049873;28;20217;-57
2023/05/09 09:36:27;;;;;;;1.88;1.10;;;;;;;14.96;87.59;64532.19;5050130;28;20193;-55
2023/05/09 09:38:59;;;;;;;1.00;0.90;;;;;;;14.94;89.21;64529.44;5049865;28;20220;-57
2023/05/09 09:41:35;;;;;;;1.23;1.13;;;;;;;14.95;89.43;64531.09;5049937;28;20224;-56
2023/05/09 09:44:08;;;;;;;4.70;1.42;;;;;;;14.87;88.37;64521.75;5050392;28;20217;-56
2023/05/09 09:46:53;;;;;;;2.65;1.27;;;;;;;14.90;89.42;64525.06;5049877;28;20709;-56
2023/05/09 09:49:25;;;;;;;1.40;1.30;;;;;;;15.00;90.21;64533.50;5049725;28;20247;-55
2023/05/09 09:51:52;;;;;;;1.83;1.27;;;;;;;15.04;89.26;64541.00;5049617;28;20213;-58
2023/05/09 09:54:18;;;;;;;1.93;1.10;;;;;;;15.03;87.02;64541.88;5049930;28;20320;-56
2023/05/09 09:56:48;;;;;;;1.90;1.67;;;;;;;15.09;88.36;64545.94;5049974;28;20715;-56
2023/05/09 09:59:22;;;;;;;1.48;1.38;;;;;;;15.14;87.64;64552.00;5049735;28;20703;-57
2023/05/09 10:01:53;;;;;;;2.33;1.30;;;;;;;15.37;87.56;64574.19;5049914;28;20200;-56
2023/05/09 10:04:19;;;;;;;1.95;1.45;;;;;;;15.67;90.12;64609.19;5049610;28;20785;-56
2023/05/09 10:06:55;;;;;;;2.45;1.60;;;;;;;16.23;89.55;64668.28;5049731;28;20197;-60
2023/05/09 10:09:23;;;;;;;2.95;1.40;;;;;;;16.31;83.94;64677.09;5032710;28;20216;-60
2023/05/09 10:11:51;;;;;;;1.13;1.02;;;;;;;16.00;83.75;64640.41;5053009;28;20300;-59
2023/05/09 10:14:22;;;;;;;1.40;1.30;;;;;;;15.92;84.78;64634.72;5035350;28;20214;-61
2023/05/09 10:16:48;;;;;;;2.42;1.40;;;;;;;15.90;85.41;64637.03;5053193;28;20225;-59
2023/05/09 10:19:17;;;;;;;1.60;1.30;;;;;;;16.16;83.97;64660.56;5052722;28;20212;-58
2023/05/09 10:21:44;;;;;;;1.42;1.33;;;;;;;15.88;83.62;64632.84;5052699;28;20564;-60
2023/05/09 10:24:10;;;;;;;1.33;1.15;;;;;;;15.88;85.38;64630.31;5052949;28;20221;-57
2023/05/09 10:26:40;;;;;;;1.10;1.05;;;;;;;15.92;85.14;64637.25;5052298;28;20189;-60
2023/05/09 10:29:09;;;;;;;1.58;1.48;;;;;;;16.06;85.64;64652.09;5052607;28;20201;-60
2023/05/09 10:31:36;;;;;;;1.50;1.40;;;;;;;15.95;84.60;64640.56;5051679;28;20224;-57
2023/05/09 10:34:08;;;;;;;1.58;1.48;;;;;;;15.91;85.78;64633.06;5051811;28;20214;-56
2023/05/09 10:36:35;;;;;;;1.70;1.60;;;;;;;15.94;85.49;64638.91;5033537;28;20216;-57
2023/05/09 10:39:01;;;;;;;1.75;1.33;;;;;;;15.67;83.02;64611.75;5052479;28;20765;-56
2023/05/09 10:41:26;;;;;;;2.05;1.70;;;;;;;15.29;83.58;64567.38;5052494;28;20181;-56
2023/05/09 10:43:55;;;;;;;1.60;1.48;;;;;;;15.33;83.66;64571.78;5052650;28;20236;-57
2023/05/09 10:46:35;;;;;;;3.08;1.65;;;;;;;15.22;86.14;64560.22;5052738;28;20189;-57
2023/05/09 10:49:01;;;;;;;1.90;1.63;;;;;;;15.33;88.36;64571.78;5052369;28;20286;-59
2023/05/09 10:51:26;;;;;;;3.53;2.00;;;;;;;15.53;87.44;64596.34;5052277;28;20217;-55
2023/05/09 10:53:54;;;;;;;2.47;1.85;;;;;;;15.45;86.41;64585.56;5052596;28;20225;-57
2023/05/09 10:56:30;;;;;;;2.95;1.77;;;;;;;15.23;87.21;64556.25;5052401;28;20266;-57
2023/05/09 10:58:56;;;;;;;2.40;1.50;;;;;;;15.37;87.21;64576.72;5052624;28;20284;-57
2023/05/09 11:01:36;;;;;;;2.38;1.98;;;;;;;15.48;87.37;64590.84;5052186;28;20197;-58
2023/05/09 11:04:09;;;;;;;2.30;2.10;;;;;;;15.45;87.89;64582.47;5052300;28;20220;-57
2023/05/09 11:06:47;;;;;;;3.28;1.95;;;;;;;15.15;87.43;64548.00;5052259;28;20293;-56
2023/05/09 11:09:33;;;;;;;2.40;2.20;;;;;;;15.14;87.62;64551.44;5052070;28;20210;-60
2023/05/09 11:12:12;;;;;;;2.25;1.95;;;;;;;15.15;87.87;64552.53;5051907;28;20213;-58
2023/05/09 11:14:45;;;;;;;3.88;2.55;;;;;;;15.35;86.08;64573.97;5052029;28;20753;-58
2023/05/09 11:17:13;;;;;;;2.28;2.17;;;;;;;15.27;87.30;64565.72;5052215;28;20192;-56
2023/05/09 11:19:41;;;;;;;1.55;1.45;;;;;;;15.27;86.61;64565.72;5033563;28;20209;-57
2023/05/09 11:22:27;;;;;;;2.90;2.08;;;;;;;15.09;88.52;64543.38;5051344;28;20229;-57
2023/05/09 11:25:03;;;;;;;3.03;2.33;;;;;;;15.24;87.98;64559.88;5051850;28;20209;-56
2023/05/09 11:27:42;;;;;;;2.17;1.98;;;;;;;15.39;85.59;64578.38;5051954;28;20204;-58
2023/05/09 11:30:09;;;;;;;4.13;2.20;;;;;;;15.42;86.17;64581.66;5051828;28;20197;-56